createdAt,value
2018-10-11T00:00:32.013Z,100096.17
2018-10-11T00:02:38.133Z,100098.34
2018-10-11T00:04:44.268Z,100097.48
2018-10-11T00:06:50.376Z,100102.40
2018-10-11T00:08:56.557Z,100096.27
2018-10-11T00:11:02.724Z,100100.70
2018-10-11T00:13:08.808Z,100097.67
2018-10-11T00:15:14.942Z,100096.09
2018-10-11T00:17:21.028Z,100097.97
2018-10-11T00:19:27.149Z,100093.75
2018-10-11T00:21:33.244Z,100090.81
2018-10-11T00:23:39.331Z,100094.39
2018-10-11T00:25:45.415Z,100094.05
2018-10-11T00:27:51.547Z,100103.30
2018-10-11T00:29:57.680Z,100112.90
2018-10-11T00:32:03.835Z,100114.89
2018-10-11T00:34:09.932Z,100113.83
2018-10-11T00:36:16.083Z,100109.69
2018-10-11T00:38:22.333Z,100108.25
2018-10-11T00:40:28.476Z,100105.05
2018-10-11T00:42:34.545Z,100103.62
2018-10-11T00:44:40.662Z,100096.73
2018-10-11T00:46:53.380Z,100103.55
2018-10-11T00:48:59.509Z,100102.41
2018-10-11T00:51:05.686Z,100098.56
2018-10-11T00:53:11.903Z,100100.73
2018-10-11T00:55:18.043Z,100103.47
2018-10-11T00:57:24.137Z,100107.14
2018-10-11T00:59:30.233Z,100101.98
2018-10-11T01:01:36.548Z,100095.08
2018-10-11T01:03:42.634Z,100096.45
2018-10-11T01:05:48.762Z,100092.44
2018-10-11T01:07:54.868Z,100090.91
2018-10-11T01:10:01.034Z,100099.43
2018-10-11T01:12:07.036Z,100091.97
2018-10-11T01:14:13.208Z,100079.23
2018-10-11T01:16:19.309Z,100079.79
2018-10-11T01:18:25.514Z,100066.96
2018-10-11T01:20:31.666Z,100067.37
2018-10-11T01:22:37.798Z,100072.19
2018-10-11T01:24:43.952Z,100075.01
2018-10-11T01:26:50.097Z,100073.34
2018-10-11T01:28:56.204Z,100074.66
2018-10-11T01:31:07.502Z,100069.93
2018-10-11T01:33:13.642Z,100067.11
2018-10-11T01:35:19.736Z,100062.38
2018-10-11T01:37:27.438Z,100059.56
2018-10-11T01:39:33.927Z,100060.50
2018-10-11T01:41:40.022Z,100056.55
2018-10-11T01:43:46.115Z,100053.44
2018-10-11T01:45:52.230Z,100053.91
2018-10-11T01:47:58.699Z,100054.37
2018-10-11T01:50:05.224Z,100059.95
2018-10-11T01:52:11.304Z,100065.42
2018-10-11T01:54:17.423Z,100073.91
2018-10-11T01:56:23.579Z,100080.78
2018-10-11T01:58:29.660Z,100083.23
2018-10-11T02:00:35.792Z,100075.31
2018-10-11T02:02:41.885Z,100070.30
2018-10-11T02:04:48.008Z,100064.86
2018-10-11T02:06:54.124Z,100059.84
2018-10-11T02:09:00.209Z,100058.45
2018-10-11T02:11:06.738Z,100055.80
2018-10-11T02:13:12.818Z,100063.26
2018-10-11T02:15:18.892Z,100061.55
2018-10-11T02:17:24.984Z,100060.60
2018-10-11T02:19:31.112Z,100067.38
2018-10-11T02:21:37.222Z,100072.03
2018-10-11T02:23:43.352Z,100068.99
2018-10-11T02:25:49.540Z,100072.45
2018-10-11T02:27:55.703Z,100076.95
2018-10-11T02:30:02.455Z,100077.77
2018-10-11T02:32:08.710Z,100073.03
2018-10-11T02:34:14.806Z,100083.62
2018-10-11T02:36:20.915Z,100076.16
2018-10-11T02:38:27.010Z,100080.73
2018-10-11T02:40:33.053Z,100078.48
2018-10-11T02:42:39.249Z,100083.14
2018-10-11T02:44:45.343Z,100078.27
2018-10-11T02:46:51.922Z,100078.00
2018-10-11T02:48:58.028Z,100081.21
2018-10-11T02:51:04.110Z,100080.25
2018-10-11T02:53:10.170Z,100070.75
2018-10-11T02:55:27.481Z,100074.08
2018-10-11T02:57:50.368Z,100072.57
2018-10-11T02:59:56.484Z,100079.97
2018-10-11T03:02:17.398Z,100077.22
2018-10-11T03:04:23.581Z,100072.41
2018-10-11T03:06:29.758Z,100075.44
2018-10-11T03:08:35.897Z,100063.85
2018-10-11T03:10:42.061Z,100064.70
2018-10-11T03:12:55.198Z,100058.89
2018-10-11T03:15:01.319Z,100066.33
2018-10-11T03:17:07.535Z,100056.29
2018-10-11T03:19:13.653Z,100060.50
2018-10-11T03:21:19.788Z,100065.20
2018-10-11T03:23:25.892Z,100078.66
2018-10-11T03:25:31.935Z,100082.88
2018-10-11T03:27:38.288Z,100081.02
2018-10-11T03:29:44.709Z,100078.63
2018-10-11T03:31:50.818Z,100081.09
2018-10-11T03:33:56.921Z,100084.17
2018-10-11T03:36:03.011Z,100078.27
2018-10-11T03:38:09.116Z,100081.67
2018-10-11T03:40:15.229Z,100085.52
2018-10-11T03:42:21.303Z,100091.89
2018-10-11T03:44:28.088Z,100090.41
2018-10-11T03:46:34.227Z,100097.42
2018-10-11T03:48:40.277Z,100093.01
2018-10-11T03:50:46.398Z,100094.25
2018-10-11T03:52:52.452Z,100092.38
2018-10-11T03:54:58.573Z,100088.42
2018-10-11T03:57:04.684Z,100090.91
2018-10-11T03:59:10.788Z,100087.64
2018-10-11T04:01:16.926Z,100090.84
2018-10-11T04:03:23.060Z,100092.77
2018-10-11T04:05:29.140Z,100098.66
2018-10-11T04:07:35.333Z,100118.93
2018-10-11T04:09:41.664Z,100115.33
2018-10-11T04:11:47.743Z,100119.48
2018-10-11T04:13:53.833Z,100119.83
2018-10-11T04:15:59.909Z,100117.20
2018-10-11T04:18:06.444Z,100120.45
2018-10-11T04:20:13.342Z,100111.74
2018-10-11T04:22:19.507Z,100101.30
2018-10-11T04:24:25.677Z,100106.31
2018-10-11T04:26:31.751Z,100098.63
2018-10-11T04:28:37.879Z,100097.17
2018-10-11T04:30:43.992Z,100103.64
2018-10-11T04:32:50.071Z,100105.81
2018-10-11T04:34:56.228Z,100114.17
2018-10-11T04:37:02.341Z,100111.08
2018-10-11T04:39:10.001Z,100111.93
2018-10-11T04:41:16.172Z,100113.17
2018-10-11T04:43:22.633Z,100109.23
2018-10-11T04:45:28.778Z,100110.08
2018-10-11T04:47:34.830Z,100119.76
2018-10-11T04:49:41.180Z,100122.17
2018-10-11T04:51:47.369Z,100119.79
2018-10-11T04:53:55.564Z,100121.95
2018-10-11T04:56:01.675Z,100114.73
2018-10-11T04:58:07.883Z,100123.78
2018-10-11T05:00:14.017Z,100131.14
2018-10-11T05:02:20.236Z,100128.80
2018-10-11T05:04:26.312Z,100125.95
2018-10-11T05:06:32.459Z,100129.53
2018-10-11T05:08:38.705Z,100132.23
2018-10-11T05:10:45.431Z,100133.30
2018-10-11T05:12:51.687Z,100134.94
2018-10-11T05:14:57.988Z,100141.34
2018-10-11T05:17:04.169Z,100134.11
2018-10-11T05:19:11.133Z,100139.23
2018-10-11T05:21:17.314Z,100144.97
2018-10-11T05:23:23.408Z,100151.55
2018-10-11T05:25:29.522Z,100152.79
2018-10-11T05:27:35.598Z,100159.73
2018-10-11T05:29:41.713Z,100165.60
2018-10-11T05:31:48.064Z,100163.70
2018-10-11T05:33:54.877Z,100164.09
2018-10-11T05:36:00.947Z,100161.92
2018-10-11T05:38:07.159Z,100162.67
2018-10-11T05:40:13.263Z,100156.41
2018-10-11T05:42:19.576Z,100162.42
2018-10-11T05:44:25.927Z,100166.30
2018-10-11T05:46:33.705Z,100167.61
2018-10-11T05:48:39.900Z,100171.48
2018-10-11T05:50:46.076Z,100174.98
2018-10-11T05:52:53.211Z,100168.78
2018-10-11T05:54:59.356Z,100173.95
2018-10-11T05:57:05.553Z,100181.23
2018-10-11T05:59:12.196Z,100188.50
2018-10-11T06:01:18.425Z,100193.69
2018-10-11T06:03:24.751Z,100197.08
2018-10-11T06:05:31.535Z,100193.05
2018-10-11T06:07:37.712Z,100189.48
2018-10-11T06:09:43.833Z,100199.91
2018-10-11T06:11:50.095Z,100206.17
2018-10-11T06:13:56.275Z,100208.27
2018-10-11T06:16:02.613Z,100211.58
2018-10-11T06:18:09.047Z,100213.09
2018-10-11T06:20:15.333Z,100219.93
2018-10-11T06:22:21.445Z,100218.35
2018-10-11T06:24:27.631Z,100211.96
2018-10-11T06:26:33.755Z,100209.92
2018-10-11T06:28:40.004Z,100218.61
2018-10-11T06:30:46.198Z,100219.92
2018-10-11T06:32:52.342Z,100224.27
2018-10-11T06:34:58.528Z,100220.20
2018-10-11T06:37:04.847Z,100220.52
2018-10-11T06:39:11.851Z,100231.06
2018-10-11T06:41:18.008Z,100237.55
2018-10-11T06:43:24.245Z,100250.12
2018-10-11T06:45:30.377Z,100244.19
2018-10-11T06:47:36.515Z,100245.90
2018-10-11T06:49:42.716Z,100242.80
2018-10-11T06:51:48.996Z,100248.81
2018-10-11T06:53:55.154Z,100253.55
2018-10-11T06:56:01.456Z,100255.26
2018-10-11T06:58:07.599Z,100254.14
2018-10-11T07:00:13.767Z,100250.38
2018-10-11T07:02:19.912Z,100253.33
2018-10-11T07:04:26.037Z,100254.46
2018-10-11T07:06:32.205Z,100268.35
2018-10-11T07:08:38.384Z,100265.52
2018-10-11T07:10:44.513Z,100261.95
2018-10-11T07:12:50.685Z,100267.08
2018-10-11T07:14:56.781Z,100274.84
2018-10-11T07:17:02.980Z,100271.08
2018-10-11T07:19:09.176Z,100284.86
2018-10-11T07:21:15.251Z,100285.37
2018-10-11T07:23:21.345Z,100286.69
2018-10-11T07:25:27.464Z,100295.97
2018-10-11T07:27:33.754Z,100295.16
2018-10-11T07:29:39.848Z,100292.62
2018-10-11T07:31:45.987Z,100294.05
2018-10-11T07:33:52.083Z,100296.03
2018-10-11T07:35:58.175Z,100299.42
2018-10-11T07:38:04.333Z,100294.91
2018-10-11T07:40:10.484Z,100308.70
2018-10-11T07:42:16.648Z,100306.24
2018-10-11T07:44:22.765Z,100302.97
2018-10-11T07:46:28.861Z,100305.03
2018-10-11T07:48:34.977Z,100311.55
2018-10-11T07:50:41.198Z,100309.02
2018-10-11T07:52:47.347Z,100314.58
2018-10-11T07:54:53.445Z,100310.36
2018-10-11T07:57:00.146Z,100311.79
2018-10-11T07:59:06.520Z,100311.73
2018-10-11T08:01:12.753Z,100306.45
2018-10-11T08:03:18.899Z,100315.88
2018-10-11T08:05:25.076Z,100310.05
2018-10-11T08:07:31.660Z,100312.97
2018-10-11T08:09:37.748Z,100313.14
2018-10-11T08:11:44.118Z,100319.47
2018-10-11T08:13:50.185Z,100313.15
2018-10-11T08:15:56.490Z,100308.89
2018-10-11T08:18:02.768Z,100307.66
2018-10-11T08:20:08.874Z,100302.45
2018-10-11T08:22:14.892Z,100308.86
2018-10-11T08:24:21.050Z,100300.83
2018-10-11T08:26:27.444Z,100305.83
2018-10-11T08:28:33.423Z,100306.85
2018-10-11T08:30:39.529Z,100308.85
2018-10-11T08:32:45.702Z,100310.82
2018-10-11T08:34:51.916Z,100317.34
2018-10-11T08:36:58.091Z,100319.61
2018-10-11T08:39:05.585Z,100316.02
2018-10-11T08:41:11.759Z,100325.46
2018-10-11T08:43:17.897Z,100317.81
2018-10-11T08:45:24.020Z,100320.72
2018-10-11T08:47:30.120Z,100314.11
2018-10-11T08:49:36.219Z,100326.95
2018-10-11T08:51:42.333Z,100325.25
2018-10-11T08:53:48.450Z,100316.28
2018-10-11T08:55:54.635Z,100309.58
2018-10-11T08:58:00.728Z,100313.42
2018-10-11T09:00:08.933Z,100314.60
2018-10-11T09:02:15.180Z,100317.42
2018-10-11T09:04:21.336Z,100316.39
2018-10-11T09:06:27.505Z,100312.11
2018-10-11T09:08:33.571Z,100320.69
2018-10-11T09:10:39.745Z,100320.77
2018-10-11T09:12:45.838Z,100332.77
2018-10-11T09:14:52.014Z,100320.25
2018-10-11T09:19:04.868Z,100323.17
2018-10-11T09:21:11.107Z,100331.45
2018-10-11T09:23:17.368Z,100320.45
2018-10-11T09:25:23.474Z,100318.34
2018-10-11T09:27:29.560Z,100320.20
2018-10-11T09:29:35.667Z,100311.00
2018-10-11T09:31:41.760Z,100315.03
2018-10-11T09:33:47.866Z,100316.99
2018-10-11T09:35:54.017Z,100324.53
2018-10-11T09:38:00.134Z,100318.06
2018-10-11T09:40:07.229Z,100323.55
2018-10-11T09:42:13.352Z,100332.08
2018-10-11T09:44:19.448Z,100326.45
2018-10-11T09:46:25.540Z,100323.01
2018-10-11T09:48:31.754Z,100327.52
2018-10-11T09:50:37.871Z,100329.75
2018-10-11T09:52:45.271Z,100329.77
2018-10-11T09:54:51.421Z,100323.33
2018-10-11T09:57:32.044Z,100320.82
2018-10-11T09:59:38.124Z,100325.05
2018-10-11T10:01:46.970Z,100331.96
2018-10-11T10:03:53.047Z,100328.60
2018-10-11T10:05:59.282Z,100326.61
2018-10-11T10:08:05.424Z,100327.23
2018-10-11T10:10:11.609Z,100322.92
2018-10-11T10:12:18.193Z,100324.87
2018-10-11T10:14:24.274Z,100322.64
2018-10-11T10:16:30.404Z,100320.50
2018-10-11T10:18:36.522Z,100318.97
2018-10-11T10:20:42.637Z,100319.49
2018-10-11T10:22:48.777Z,100317.48
2018-10-11T10:24:54.852Z,100318.11
2018-10-11T10:27:01.021Z,100315.97
2018-10-11T10:29:07.159Z,100316.14
2018-10-11T10:31:13.277Z,100317.98
2018-10-11T10:33:19.420Z,100314.98
2018-10-11T10:35:25.584Z,100317.20
2018-10-11T10:37:31.655Z,100318.28
2018-10-11T10:39:37.821Z,100318.69
2018-10-11T10:41:44.043Z,100316.65
2018-10-11T10:43:50.187Z,100310.89
2018-10-11T10:45:56.358Z,100305.23
2018-10-11T10:48:02.461Z,100305.25
2018-10-11T10:50:08.632Z,100302.52
2018-10-11T10:52:14.784Z,100304.48
2018-10-11T10:54:27.731Z,100301.26
2018-10-11T10:56:33.864Z,100305.91
2018-10-11T10:58:39.963Z,100302.16
2018-10-11T11:00:46.082Z,100309.43
2018-10-11T11:02:52.212Z,100300.39
2018-10-11T11:04:58.373Z,100294.94
2018-10-11T11:07:04.480Z,100289.05
2018-10-11T11:09:12.532Z,100283.25
2018-10-11T11:11:18.615Z,100283.36
2018-10-11T11:13:24.785Z,100286.88
2018-10-11T11:15:30.896Z,100284.81
2018-10-11T11:17:37.004Z,100277.94
2018-10-11T11:19:43.270Z,100277.20
2018-10-11T11:21:49.412Z,100280.60
2018-10-11T11:23:55.518Z,100278.20
2018-10-11T11:26:01.645Z,100273.47
2018-10-11T11:28:07.860Z,100272.88
2018-10-11T11:30:13.983Z,100267.91
2018-10-11T11:32:20.105Z,100261.97
2018-10-11T11:34:26.237Z,100260.63
2018-10-11T11:36:32.362Z,100263.81
2018-10-11T11:38:38.540Z,100255.20
2018-10-11T11:40:44.686Z,100250.24
2018-10-11T11:42:50.759Z,100263.77
2018-10-11T11:44:56.896Z,100260.52
2018-10-11T11:47:02.965Z,100254.59
2018-10-11T11:49:09.045Z,100258.11
2018-10-11T11:51:15.138Z,100263.17
2018-10-11T11:53:21.284Z,100266.58
2018-10-11T11:55:27.512Z,100262.31
2018-10-11T11:57:33.619Z,100265.45
2018-10-11T11:59:39.699Z,100261.94
2018-10-11T12:01:45.840Z,100258.41
2018-10-11T12:03:52.628Z,100261.17
2018-10-11T12:05:58.810Z,100270.16
2018-10-11T12:08:04.883Z,100263.34
2018-10-11T12:10:10.999Z,100263.11
2018-10-11T12:13:25.148Z,100268.91
2018-10-11T12:15:32.125Z,100261.77
2018-10-11T12:17:38.189Z,100261.77
2018-10-11T12:19:44.304Z,100260.66
2018-10-11T12:21:50.387Z,100264.41
2018-10-11T12:26:01.220Z,100266.55
2018-10-11T12:28:07.474Z,100257.83
2018-10-11T12:30:13.962Z,100254.81
2018-10-11T12:32:20.066Z,100254.06
2018-10-11T12:34:26.183Z,100251.88
2018-10-11T12:36:32.330Z,100254.31
2018-10-11T12:38:38.445Z,100250.05
2018-10-11T12:40:44.612Z,100245.29
2018-10-11T12:42:50.716Z,100242.39
2018-10-11T12:44:56.853Z,100242.48
2018-10-11T12:47:05.349Z,100238.58
2018-10-11T12:49:11.497Z,100242.33
2018-10-11T12:51:17.662Z,100240.24
2018-10-11T12:53:23.922Z,100241.82
2018-10-11T12:55:30.114Z,100240.09
2018-10-11T12:57:36.466Z,100244.66
2018-10-11T12:59:42.469Z,100243.70
2018-10-11T13:01:48.611Z,100244.55
2018-10-11T13:03:54.728Z,100241.39
2018-10-11T13:06:00.869Z,100238.73
2018-10-11T13:08:06.975Z,100233.24
2018-10-11T13:10:13.119Z,100237.72
2018-10-11T13:12:19.315Z,100240.91
2018-10-11T13:14:25.379Z,100238.24
2018-10-11T13:16:31.628Z,100227.58
2018-10-11T13:18:37.760Z,100233.24
2018-10-11T13:20:43.918Z,100230.09
2018-10-11T13:22:50.046Z,100225.60
2018-10-11T13:24:56.190Z,100221.72
2018-10-11T13:27:02.614Z,100219.70
2018-10-11T13:29:08.739Z,100224.78
2018-10-11T13:31:14.861Z,100234.39
2018-10-11T13:33:20.966Z,100245.19
2018-10-11T13:35:27.080Z,100255.37
2018-10-11T13:37:33.302Z,100251.36
2018-10-11T13:39:39.781Z,100246.76
2018-10-11T13:41:45.789Z,100252.94
2018-10-11T13:43:51.968Z,100256.42
2018-10-11T13:46:01.203Z,100243.94
2018-10-11T13:48:04.341Z,100256.42
2018-10-11T13:50:11.064Z,100259.45
2018-10-11T13:52:20.558Z,100264.79
2018-10-11T13:54:23.347Z,100258.48
2018-10-11T13:56:29.473Z,100261.27
2018-10-11T13:58:35.575Z,100253.76
2018-10-11T14:00:41.768Z,100251.61
2018-10-11T14:02:47.792Z,100254.77
2018-10-11T14:04:53.919Z,100252.58
2018-10-11T14:07:00.109Z,100246.76
2018-10-11T14:09:10.252Z,100254.27
2018-10-11T14:11:16.437Z,100252.94
2018-10-11T14:13:22.585Z,100247.73
2018-10-11T14:15:28.741Z,100243.84
2018-10-11T14:17:34.925Z,100237.82
2018-10-11T14:19:41.001Z,100236.24
2018-10-11T14:21:47.131Z,100242.42
2018-10-11T14:23:53.286Z,100236.52
2018-10-11T14:25:59.384Z,100231.30
2018-10-11T14:28:05.574Z,100225.61
2018-10-11T14:30:11.713Z,100229.73
2018-10-11T14:32:17.836Z,100231.91
2018-10-11T14:34:23.934Z,100232.27
2018-10-11T14:36:30.705Z,100234.09
2018-10-11T14:38:36.763Z,100227.22
2018-10-11T14:40:42.916Z,100229.39
2018-10-11T14:42:49.095Z,100221.03
2018-10-11T14:44:55.251Z,100218.12
2018-10-11T14:47:01.458Z,100218.76
2018-10-11T14:49:07.600Z,100208.81
2018-10-11T14:51:13.814Z,100205.70
2018-10-11T14:53:19.830Z,100212.52
2018-10-11T14:55:26.017Z,100211.18
2018-10-11T14:57:32.190Z,100204.27
2018-10-11T14:59:38.469Z,100202.36
2018-10-11T15:01:44.548Z,100205.27
2018-10-11T15:03:50.685Z,100213.41
2018-10-11T15:05:56.849Z,100214.74
2018-10-11T15:08:03.030Z,100213.41
2018-10-11T15:10:09.263Z,100215.31
2018-10-11T15:12:15.393Z,100218.46
2018-10-11T15:14:21.530Z,100225.61
2018-10-11T15:16:28.168Z,100220.18
2018-10-11T15:22:44.021Z,100227.69
2018-10-11T15:24:50.218Z,100230.84
2018-10-11T15:29:01.342Z,100224.78
2018-10-11T15:31:07.528Z,100223.59
2018-10-11T15:33:13.973Z,100225.16
2018-10-11T15:35:20.770Z,100234.48
2018-10-11T15:37:26.939Z,100233.30
2018-10-11T15:39:33.208Z,100241.05
2018-10-11T15:41:39.603Z,100244.58
2018-10-11T15:43:45.781Z,100245.08
2018-10-11T15:45:51.932Z,100243.02
2018-10-11T15:47:58.126Z,100240.34
2018-10-11T15:50:04.304Z,100233.69
2018-10-11T15:52:10.826Z,100236.23
2018-10-11T15:54:17.032Z,100232.61
2018-10-11T15:56:23.156Z,100231.76
2018-10-11T15:58:29.302Z,100233.36
2018-10-11T16:00:35.436Z,100233.85
2018-10-11T16:02:41.521Z,100240.64
2018-10-11T16:04:47.689Z,100241.27
2018-10-11T16:06:53.841Z,100249.75
2018-10-11T16:09:00.161Z,100243.10
2018-10-11T16:11:06.257Z,100245.17
2018-10-11T16:13:12.514Z,100241.41
2018-10-11T16:15:18.674Z,100246.37
2018-10-11T16:17:24.863Z,100245.19
2018-10-11T16:19:53.194Z,100241.78
2018-10-11T16:22:22.264Z,100243.94
2018-10-11T16:24:28.421Z,100241.75
2018-10-11T16:26:34.708Z,100247.34
2018-10-11T16:28:40.931Z,100242.72
2018-10-11T16:30:47.083Z,100247.45
2018-10-11T16:32:53.308Z,100242.72
2018-10-11T16:34:59.469Z,100240.31
2018-10-11T16:37:05.615Z,100250.73
2018-10-11T16:39:11.750Z,100249.98
2018-10-11T16:41:17.887Z,100257.70
2018-10-11T16:43:24.008Z,100264.02
2018-10-11T16:45:30.121Z,100266.80
2018-10-11T16:47:36.371Z,100271.52
2018-10-11T16:49:42.595Z,100277.53
2018-10-11T16:51:48.745Z,100276.56
2018-10-11T16:53:55.180Z,100281.28
2018-10-11T16:56:01.261Z,100284.30
2018-10-11T16:58:07.922Z,100295.05
2018-10-11T17:00:13.989Z,100292.13
2018-10-11T17:02:20.216Z,100296.86
2018-10-11T17:04:26.400Z,100297.13
2018-10-11T17:06:32.609Z,100296.88
2018-10-11T17:08:38.907Z,100292.77
2018-10-11T17:10:45.098Z,100288.30
2018-10-11T17:12:51.306Z,100286.61
2018-10-11T17:14:57.517Z,100287.81
2018-10-11T17:17:03.677Z,100295.16
2018-10-11T17:19:32.340Z,100293.45
2018-10-11T17:22:00.576Z,100293.97
2018-10-11T17:24:07.072Z,100294.92
2018-10-11T17:26:13.302Z,100299.39
2018-10-11T17:28:19.491Z,100299.50
2018-10-11T17:30:25.716Z,100299.50
2018-10-11T17:32:31.901Z,100298.17
2018-10-11T17:34:38.101Z,100298.66
2018-10-11T17:36:44.337Z,100298.66
2018-10-11T17:38:50.444Z,100300.94
2018-10-11T17:40:56.702Z,100297.43
2018-10-11T17:43:02.973Z,100301.08
2018-10-11T17:45:09.389Z,100294.54
2018-10-11T17:47:15.523Z,100298.16
2018-10-11T17:49:21.698Z,100306.75
2018-10-11T17:51:28.369Z,100300.31
2018-10-11T17:53:34.871Z,100306.84
2018-10-11T17:55:41.073Z,100308.11
2018-10-11T17:57:47.319Z,100310.27
2018-10-11T17:59:53.536Z,100306.53
2018-10-11T18:01:59.875Z,100310.86
2018-10-11T18:04:06.312Z,100304.95
2018-10-11T18:06:12.616Z,100305.70
2018-10-11T18:08:18.817Z,100307.37
2018-10-11T18:10:25.049Z,100303.05
2018-10-11T18:12:31.242Z,100304.71
2018-10-11T18:14:37.645Z,100301.20
2018-10-11T18:16:43.825Z,100304.37
2018-10-11T18:19:19.001Z,100311.02
2018-10-11T18:21:48.226Z,100312.93
2018-10-11T18:23:54.320Z,100312.08
2018-10-11T18:26:00.489Z,100313.30
2018-10-11T18:28:06.723Z,100308.36
2018-10-11T18:30:13.571Z,100309.55
2018-10-11T18:32:19.774Z,100306.04
2018-10-11T18:34:26.013Z,100307.73
2018-10-11T18:36:32.136Z,100311.25
2018-10-11T18:38:38.497Z,100308.36
2018-10-11T18:40:44.647Z,100309.17
2018-10-11T18:42:50.777Z,100314.02
2018-10-11T18:44:57.245Z,100318.48
2018-10-11T18:47:03.531Z,100317.66
2018-10-11T18:49:10.375Z,100321.75
2018-10-11T18:51:16.651Z,100328.03
2018-10-11T18:53:24.153Z,100333.69
2018-10-11T18:55:30.344Z,100336.80
2018-10-11T18:57:36.911Z,100339.30
2018-10-11T18:59:43.090Z,100343.83
2018-10-11T19:01:49.273Z,100347.44
2018-10-11T19:03:55.451Z,100346.92
2018-10-11T19:06:01.614Z,100346.92
2018-10-11T19:08:07.829Z,100344.88
2018-10-11T19:10:14.059Z,100342.98
2018-10-11T19:12:20.356Z,100349.86
2018-10-11T19:14:26.528Z,100347.67
2018-10-11T19:16:32.864Z,100342.73
2018-10-11T19:19:09.231Z,100345.30
2018-10-11T19:21:38.201Z,100340.19
2018-10-11T19:23:44.497Z,100342.98
2018-10-11T19:25:51.730Z,100347.06
2018-10-11T19:27:57.938Z,100351.16
2018-10-11T19:30:04.263Z,100355.37
2018-10-11T19:32:10.612Z,100350.73
2018-10-11T19:34:16.809Z,100358.20
2018-10-11T19:36:22.953Z,100348.72
2018-10-11T19:38:29.171Z,100352.28
2018-10-11T19:40:35.399Z,100344.80
2018-10-11T19:42:41.657Z,100344.80
2018-10-11T19:44:48.140Z,100344.08
2018-10-11T19:46:54.346Z,100357.03
2018-10-11T19:49:00.651Z,100355.48
2018-10-11T19:51:07.013Z,100356.99
2018-10-11T19:53:13.292Z,100363.20
2018-10-11T19:55:19.436Z,100362.42
2018-10-11T19:57:25.645Z,100359.12
2018-10-11T19:59:31.861Z,100358.87
2018-10-11T20:01:38.827Z,100363.09
2018-10-11T20:03:45.009Z,100372.38
2018-10-11T20:05:51.288Z,100371.19
2018-10-11T20:07:57.711Z,100379.39
2018-10-11T20:10:03.844Z,100385.45
2018-10-11T20:12:10.043Z,100383.91
2018-10-11T20:14:16.218Z,100377.89
2018-10-11T20:16:22.452Z,100375.14
2018-10-11T20:18:28.630Z,100380.55
2018-10-11T20:21:14.777Z,100385.13
2018-10-11T20:23:39.081Z,100389.06
2018-10-11T20:25:45.422Z,100392.03
2018-10-11T20:27:51.552Z,100393.55
2018-10-11T20:29:57.702Z,100390.05
2018-10-11T20:32:04.096Z,100400.19
2018-10-11T20:34:10.407Z,100399.46
2018-10-11T20:36:16.576Z,100396.53
2018-10-11T20:38:22.757Z,100403.44
2018-10-11T20:40:29.053Z,100398.86
2018-10-11T20:42:35.208Z,100401.32
2018-10-11T20:44:41.364Z,100410.13
2018-10-11T20:46:47.671Z,100414.73
2018-10-11T20:48:53.906Z,100422.22
2018-10-11T20:51:00.289Z,100423.55
2018-10-11T20:53:06.883Z,100429.05
2018-10-11T20:55:13.119Z,100426.24
2018-10-11T20:57:19.540Z,100423.44
2018-10-11T20:59:25.637Z,100427.89
2018-10-11T21:01:33.277Z,100431.30
2018-10-11T21:03:40.206Z,100422.39
2018-10-11T21:05:47.761Z,100419.89
2018-10-11T21:07:53.929Z,100415.31
2018-10-11T21:10:00.458Z,100412.66
2018-10-11T21:12:06.836Z,100414.45
2018-10-11T21:14:13.005Z,100417.23
2018-10-11T21:16:19.186Z,100417.08
2018-10-11T21:18:25.353Z,100425.98
2018-10-11T21:20:53.422Z,100424.76
2018-10-11T21:23:21.842Z,100426.31
2018-10-11T21:25:28.037Z,100420.34
2018-10-11T21:27:34.880Z,100426.25
2018-10-11T21:29:40.941Z,100424.06
2018-10-11T21:31:47.086Z,100420.56
2018-10-11T21:33:53.231Z,100422.73
2018-10-11T21:35:59.376Z,100421.29
2018-10-11T21:38:05.708Z,100429.94
2018-10-11T21:40:12.523Z,100431.67
2018-10-11T21:42:18.571Z,100432.59
2018-10-11T21:44:24.821Z,100429.42
2018-10-11T21:46:30.887Z,100436.44
2018-10-11T21:48:36.994Z,100432.94
2018-10-11T21:50:43.094Z,100443.92
2018-10-11T21:52:49.226Z,100442.34
2018-10-11T21:54:55.304Z,100443.47
2018-10-11T21:57:01.401Z,100459.81
2018-10-11T21:59:08.260Z,100457.25
2018-10-11T22:01:21.976Z,100455.11
2018-10-11T22:03:28.127Z,100464.70
2018-10-11T22:05:34.256Z,100464.79
2018-10-11T22:07:40.401Z,100468.85
2018-10-11T22:09:46.522Z,100470.56
2018-10-11T22:11:52.701Z,100467.61
2018-10-11T22:13:58.949Z,100470.42
2018-10-11T22:16:05.148Z,100472.30
2018-10-11T22:18:11.572Z,100479.50
2018-10-11T22:20:39.993Z,100482.06
2018-10-11T22:23:08.915Z,100480.05
2018-10-11T22:25:15.137Z,100490.95
2018-10-11T22:27:21.205Z,100481.67
2018-10-11T22:29:27.313Z,100493.98
2018-10-11T22:31:33.433Z,100492.19
2018-10-11T22:33:39.924Z,100489.06
2018-10-11T22:35:46.036Z,100490.26
2018-10-11T22:37:59.647Z,100489.31
2018-10-11T22:40:05.902Z,100486.66
2018-10-11T22:42:12.319Z,100493.77
2018-10-11T22:44:18.493Z,100490.38
2018-10-11T22:46:24.825Z,100486.41
2018-10-11T22:48:30.935Z,100486.97
2018-10-11T22:50:37.203Z,100490.56
2018-10-11T22:52:43.291Z,100501.64
2018-10-11T22:54:49.487Z,100504.42
2018-10-11T22:56:55.589Z,100505.37
2018-10-11T22:59:01.741Z,100506.69
2018-10-11T23:01:08.034Z,100505.08
2018-10-11T23:03:14.169Z,100506.48
2018-10-11T23:05:20.335Z,100509.27
2018-10-11T23:07:26.510Z,100512.86
2018-10-11T23:09:32.619Z,100507.73
2018-10-11T23:11:38.719Z,100514.92
2018-10-11T23:13:44.852Z,100506.13
2018-10-11T23:15:50.936Z,100515.23
2018-10-11T23:17:57.096Z,100517.70
2018-10-11T23:20:25.963Z,100514.77
2018-10-11T23:22:54.219Z,100519.04
2018-10-11T23:25:00.407Z,100529.47
2018-10-11T23:27:06.594Z,100537.21
2018-10-11T23:29:12.707Z,100531.27
2018-10-11T23:31:18.843Z,100537.03
2018-10-11T23:33:25.377Z,100548.11
2018-10-11T23:35:31.477Z,100548.98
2018-10-11T23:37:37.641Z,100536.50
2018-10-11T23:39:43.736Z,100545.95
2018-10-11T23:41:49.825Z,100550.13
2018-10-11T23:43:55.895Z,100548.80
2018-10-11T23:46:02.056Z,100553.33
2018-10-11T23:48:08.739Z,100554.27
2018-10-11T23:50:14.864Z,100563.75
2018-10-11T23:52:20.963Z,100572.25
2018-10-11T23:54:27.068Z,100564.89
2018-10-11T23:56:33.162Z,100569.42
2018-10-11T23:58:39.249Z,100560.35
